Terminal Aerodrome Forecast
Issued by NWS

Home | Current Version | Previous Version | Text Only | Print | Product List | Glossary On
Versions: 1 2 3 4 5 6 7 8 9 10 11 12 13 14 15 16
000
FTUS46 KMTR 181100
TAFSNS
TAF
KSNS 181123Z 1812/1912 10012KT P6SM VCSH OVC030
     FM181800 11014KT P6SM FEW020 BKN050
     FM182300 25007KT P6SM FEW020 BKN050
     FM190200 VRB04KT P6SM FEW020 OVC050
     FM191000 12010KT P6SM BKN030=

USA.gov is the U.S. government's official web portal to all federal, state and local government web resources and services.